createdAt,value
2022-09-10T00:02:35.000Z,100
2022-09-10T00:07:34.000Z,100
2022-09-10T00:12:35.000Z,100
2022-09-10T00:22:35.000Z,100
2022-09-10T00:27:35.000Z,100
2022-09-10T00:32:34.000Z,100
2022-09-10T00:37:35.000Z,100
2022-09-10T00:42:34.000Z,100
2022-09-10T00:47:34.000Z,100
2022-09-10T00:52:35.000Z,100
2022-09-10T00:57:34.000Z,100
2022-09-10T01:07:35.000Z,100
2022-09-10T01:12:35.000Z,100
2022-09-10T01:17:35.000Z,100
2022-09-10T01:22:35.000Z,100
2022-09-10T01:27:34.000Z,100
2022-09-10T01:32:35.000Z,100
2022-09-10T01:37:34.000Z,100
2022-09-10T01:42:35.000Z,100
2022-09-10T01:47:34.000Z,100
2022-09-10T01:52:35.000Z,100
2022-09-10T01:57:34.000Z,100
2022-09-10T02:02:34.000Z,100
2022-09-10T02:07:35.000Z,100
2022-09-10T02:12:34.000Z,100
2022-09-10T02:17:34.000Z,100
2022-09-10T02:27:34.000Z,100
2022-09-10T02:32:34.000Z,100
2022-09-10T02:37:34.000Z,100
2022-09-10T02:42:34.000Z,100
2022-09-10T02:47:34.000Z,100
2022-09-10T02:52:35.000Z,100
2022-09-10T02:57:35.000Z,100
2022-09-10T03:02:34.000Z,100
2022-09-10T03:07:34.000Z,100
2022-09-10T03:12:35.000Z,100
2022-09-10T03:17:35.000Z,100
2022-09-10T03:22:35.000Z,100
2022-09-10T03:27:35.000Z,100
2022-09-10T03:32:34.000Z,100
2022-09-10T03:42:34.000Z,100
2022-09-10T03:47:34.000Z,100
2022-09-10T03:52:35.000Z,100
2022-09-10T03:57:34.000Z,100
2022-09-10T04:02:35.000Z,100
2022-09-10T04:07:35.000Z,100
2022-09-10T04:12:34.000Z,100
2022-09-10T04:17:35.000Z,100
2022-09-10T04:22:35.000Z,100
2022-09-10T04:27:35.000Z,100
2022-09-10T04:32:35.000Z,100
2022-09-10T04:37:35.000Z,100
2022-09-10T04:42:34.000Z,100
2022-09-10T04:47:35.000Z,100
2022-09-10T04:52:35.000Z,100
2022-09-10T04:57:34.000Z,100
2022-09-10T05:02:34.000Z,100
2022-09-10T05:07:34.000Z,99.97
2022-09-10T05:12:34.000Z,98.61
2022-09-10T05:17:35.000Z,97.35
2022-09-10T05:22:41.000Z,95.53
2022-09-10T05:27:35.000Z,95.53
2022-09-10T05:32:35.000Z,91.63
2022-09-10T05:37:35.000Z,68.81
2022-09-10T05:42:34.000Z,47.36
2022-09-10T05:47:35.000Z,38.82
2022-09-10T05:52:35.000Z,35.55
2022-09-10T05:57:34.000Z,32.87
2022-09-10T06:02:34.000Z,28.51
2022-09-10T06:07:35.000Z,25.29
2022-09-10T06:12:34.000Z,23.05
2022-09-10T06:17:35.000Z,21.73
2022-09-10T06:22:34.000Z,21.53
2022-09-10T06:27:34.000Z,23.36
2022-09-10T06:32:35.000Z,23.62
2022-09-10T06:37:35.000Z,22.4
2022-09-10T06:42:34.000Z,22.4
2022-09-10T06:48:48.000Z,18.74
2022-09-10T06:57:35.000Z,17.49
2022-09-10T07:02:35.000Z,18.71
2022-09-10T07:07:34.000Z,17.89
2022-09-10T07:12:35.000Z,18.32
2022-09-10T07:17:41.000Z,18.82
2022-09-10T07:22:34.000Z,17.93
2022-09-10T07:27:34.000Z,17.07
2022-09-10T07:32:34.000Z,15.7
2022-09-10T07:37:34.000Z,14.64
2022-09-10T07:42:34.000Z,15.52
2022-09-10T07:47:35.000Z,15.61
2022-09-10T07:52:34.000Z,15.81
2022-09-10T07:57:35.000Z,15.81
2022-09-10T08:02:35.000Z,13.35
2022-09-10T08:07:35.000Z,12.33
2022-09-10T08:12:35.000Z,11.64
2022-09-10T08:17:35.000Z,13.15
2022-09-10T08:22:34.000Z,15.01
2022-09-10T08:27:34.000Z,14.91
2022-09-10T08:32:35.000Z,16.24
2022-09-10T08:37:34.000Z,16.3
2022-09-10T08:42:35.000Z,15.74
2022-09-10T08:47:35.000Z,14.78
2022-09-10T08:52:35.000Z,14.34
2022-09-10T08:57:35.000Z,15.09
2022-09-10T09:02:58.000Z,19.64
2022-09-10T09:07:34.000Z,24.36
2022-09-10T09:12:35.000Z,24.36
2022-09-10T09:17:35.000Z,28.31
2022-09-10T09:22:35.000Z,29.71
2022-09-10T09:27:35.000Z,31.61
2022-09-10T09:32:34.000Z,33.04
2022-09-10T09:37:35.000Z,31.95
2022-09-10T09:42:34.000Z,32.28
2022-09-10T09:47:34.000Z,32.75
2022-09-10T09:52:35.000Z,33.31
2022-09-10T09:57:34.000Z,33.03
2022-09-10T10:02:36.000Z,32.86
2022-09-10T10:07:35.000Z,33.14
2022-09-10T10:12:35.000Z,32.55
2022-09-10T10:17:34.000Z,32.55
2022-09-10T10:22:35.000Z,33.37
2022-09-10T10:27:35.000Z,33.37
2022-09-10T10:37:34.000Z,34.05
2022-09-10T10:42:34.000Z,33.94
2022-09-10T10:47:35.000Z,34
2022-09-10T10:52:34.000Z,34.33
2022-09-10T10:57:35.000Z,34.14
2022-09-10T11:02:35.000Z,34.24
2022-09-10T11:07:35.000Z,34.83
2022-09-10T11:12:34.000Z,34.72
2022-09-10T11:17:35.000Z,34.03
2022-09-10T11:22:34.000Z,34.46
2022-09-10T11:27:35.000Z,34.92
2022-09-10T11:32:35.000Z,34.81
2022-09-10T11:37:34.000Z,34.81
2022-09-10T11:42:34.000Z,35.37
2022-09-10T11:47:35.000Z,34.91
2022-09-10T11:52:35.000Z,35.19
2022-09-10T11:57:35.000Z,35.18
2022-09-10T12:02:35.000Z,34.82
2022-09-10T12:07:35.000Z,34.78
2022-09-10T12:12:34.000Z,34.89
2022-09-10T12:17:35.000Z,34.67
2022-09-10T12:22:35.000Z,35.28
2022-09-10T12:27:35.000Z,35.47
2022-09-10T12:32:34.000Z,35.27
2022-09-10T12:37:34.000Z,34.99
2022-09-10T12:42:34.000Z,35.1
2022-09-10T12:47:35.000Z,35.04
2022-09-10T12:52:35.000Z,35.04
2022-09-10T12:57:35.000Z,35.21
2022-09-10T13:02:34.000Z,35.41
2022-09-10T13:07:34.000Z,35.68
2022-09-10T13:12:35.000Z,36.35
2022-09-10T13:17:34.000Z,35.86
2022-09-10T13:22:34.000Z,36.1
2022-09-10T13:27:35.000Z,36.3
2022-09-10T13:32:35.000Z,36.07
2022-09-10T13:37:35.000Z,36.45
2022-09-10T13:42:35.000Z,36.57
2022-09-10T13:47:34.000Z,35.74
2022-09-10T13:52:35.000Z,36.31
2022-09-10T13:57:35.000Z,35.95
2022-09-10T14:02:35.000Z,35.94
2022-09-10T14:07:35.000Z,35.94
2022-09-10T14:17:34.000Z,37.46
2022-09-10T14:22:35.000Z,37.51
2022-09-10T14:27:35.000Z,37.18
2022-09-10T14:32:35.000Z,37.55
2022-09-10T14:37:35.000Z,37.75
2022-09-10T14:42:35.000Z,37.16
2022-09-10T14:47:35.000Z,37.63
2022-09-10T14:52:35.000Z,38.13
2022-09-10T14:57:34.000Z,38.66
2022-09-10T15:02:35.000Z,39.59
2022-09-10T15:07:34.000Z,39.59
2022-09-10T15:12:35.000Z,40.49
2022-09-10T15:17:34.000Z,41.08
2022-09-10T15:22:34.000Z,41.9
2022-09-10T15:27:34.000Z,41.9
2022-09-10T15:37:35.000Z,45.03
2022-09-10T15:42:34.000Z,47.81
2022-09-10T15:52:35.000Z,51.51
2022-09-10T15:57:34.000Z,54.09
2022-09-10T16:02:35.000Z,56.22
2022-09-10T16:07:35.000Z,57.73
2022-09-10T16:12:35.000Z,59.75
2022-09-10T16:17:35.000Z,62.47
2022-09-10T16:22:35.000Z,64.6
2022-09-10T16:27:34.000Z,67.19
2022-09-10T16:32:35.000Z,67.99
2022-09-10T16:37:35.000Z,68.73
2022-09-10T16:42:34.000Z,69.4
2022-09-10T16:47:35.000Z,71.44
2022-09-10T16:52:35.000Z,73.27
2022-09-10T16:57:35.000Z,73.27
2022-09-10T17:02:35.000Z,73.38
2022-09-10T17:07:35.000Z,75.64
2022-09-10T17:12:34.000Z,79.22
2022-09-10T17:17:35.000Z,81.58
2022-09-10T17:22:34.000Z,83.58
2022-09-10T17:27:35.000Z,85.94
2022-09-10T17:32:35.000Z,86.74
2022-09-10T17:37:35.000Z,89.78
2022-09-10T17:42:35.000Z,89.57
2022-09-10T17:47:34.000Z,90.09
2022-09-10T17:52:34.000Z,92.13
2022-09-10T17:57:34.000Z,91.69
2022-09-10T18:02:34.000Z,93.03
2022-09-10T18:07:34.000Z,96.53
2022-09-10T18:12:35.000Z,96.53
2022-09-10T18:17:35.000Z,95.6
2022-09-10T18:22:35.000Z,96.03
2022-09-10T18:27:35.000Z,95.78
2022-09-10T18:32:36.000Z,96.15
2022-09-10T18:42:35.000Z,97.53
2022-09-10T18:47:54.000Z,98.58
2022-09-10T18:52:34.000Z,98.43
2022-09-10T18:57:34.000Z,98.7
2022-09-10T19:02:34.000Z,100
2022-09-10T19:07:35.000Z,100
2022-09-10T19:12:35.000Z,100
2022-09-10T19:17:34.000Z,100
2022-09-10T19:22:35.000Z,100
2022-09-10T19:27:35.000Z,100
2022-09-10T19:32:34.000Z,100
2022-09-10T19:37:35.000Z,100
2022-09-10T19:42:35.000Z,100
2022-09-10T19:47:34.000Z,100
2022-09-10T19:52:35.000Z,100
2022-09-10T19:57:35.000Z,100
2022-09-10T20:02:35.000Z,100
2022-09-10T20:07:35.000Z,100
2022-09-10T20:12:35.000Z,100
2022-09-10T20:17:35.000Z,100
2022-09-10T20:22:34.000Z,100
2022-09-10T20:27:34.000Z,100
2022-09-10T20:32:35.000Z,100
2022-09-10T20:37:34.000Z,100
2022-09-10T20:42:34.000Z,100
2022-09-10T20:47:34.000Z,100
2022-09-10T20:52:34.000Z,100
2022-09-10T20:57:35.000Z,100
2022-09-10T21:02:35.000Z,100
2022-09-10T21:07:34.000Z,100
2022-09-10T21:12:34.000Z,100
2022-09-10T21:17:35.000Z,100
2022-09-10T21:22:34.000Z,100
2022-09-10T21:27:35.000Z,100
2022-09-10T21:32:35.000Z,100
2022-09-10T21:37:34.000Z,100
2022-09-10T21:42:35.000Z,100
2022-09-10T21:47:35.000Z,100
2022-09-10T21:52:35.000Z,100
2022-09-10T21:57:34.000Z,100
2022-09-10T22:02:35.000Z,100
2022-09-10T22:07:34.000Z,100
2022-09-10T22:12:35.000Z,100
2022-09-10T22:17:34.000Z,100
2022-09-10T22:22:35.000Z,100
2022-09-10T22:27:34.000Z,100
2022-09-10T22:32:35.000Z,100
2022-09-10T22:37:35.000Z,100
2022-09-10T22:42:35.000Z,100
2022-09-10T22:47:35.000Z,100
2022-09-10T22:52:35.000Z,100
2022-09-10T22:57:34.000Z,100
2022-09-10T23:02:34.000Z,100
2022-09-10T23:07:34.000Z,100
2022-09-10T23:12:35.000Z,100
2022-09-10T23:17:34.000Z,100
2022-09-10T23:22:34.000Z,100
2022-09-10T23:27:34.000Z,100
2022-09-10T23:32:35.000Z,100
2022-09-10T23:37:35.000Z,100
2022-09-10T23:42:34.000Z,100
2022-09-10T23:47:35.000Z,100
2022-09-10T23:52:35.000Z,100
2022-09-10T23:57:35.000Z,100
